Time;durP1;ratioP1;P1;durP2;ratioP2;P2;SDS_P1;SDS_P2;PMS_P1;PMS_P2;Temp;Humidity;BMP_temperature;BMP_pressure;BME280_temperature;BME280_humidity;BME280_pressure;Samples;Min_cycle;Max_cycle;Signal;HPM_P1;HPM_P2
2023/02/03 00:00:56;;;;;;;1.58;0.82;;;23.60;51.90;;;;;;4145881;28;20049;-40
2023/02/03 00:03:18;;;;;;;1.92;0.80;;;23.50;52.30;;;;;;4151691;28;20049;-43
2023/02/03 00:05:41;;;;;;;1.15;0.70;;;23.40;52.00;;;;;;4151182;28;20522;-41
2023/02/03 00:08:06;;;;;;;2.15;0.90;;;23.30;52.00;;;;;;4155740;28;20033;-39
2023/02/03 00:10:28;;;;;;;1.73;0.80;;;23.20;52.30;;;;;;4145094;28;20041;-39
2023/02/03 00:12:52;;;;;;;1.50;0.50;;;23.20;52.60;;;;;;4149431;28;20037;-39
2023/02/03 00:15:14;;;;;;;1.85;0.70;;;23.10;52.70;;;;;;4157580;28;20046;-45
2023/02/03 00:17:36;;;;;;;1.67;0.80;;;23.00;52.80;;;;;;4156681;28;20042;-41
2023/02/03 00:19:59;;;;;;;1.40;0.60;;;22.90;52.70;;;;;;4156663;28;22004;-41
2023/02/03 00:22:21;;;;;;;1.25;0.63;;;22.80;52.60;;;;;;4157964;28;20045;-40
2023/02/03 00:24:44;;;;;;;3.80;0.85;;;22.80;52.80;;;;;;4154415;28;20038;-40
2023/02/03 00:27:06;;;;;;;5.10;1.10;;;22.70;52.30;;;;;;4150720;28;20053;-41
2023/02/03 00:29:29;;;;;;;4.88;0.80;;;22.60;53.30;;;;;;4153358;28;20052;-40
2023/02/03 00:31:52;;;;;;;1.17;0.77;;;22.50;52.90;;;;;;4153947;28;20587;-41
2023/02/03 00:34:15;;;;;;;2.42;0.93;;;22.50;53.10;;;;;;4155923;28;20369;-42
2023/02/03 00:36:37;;;;;;;0.77;0.50;;;22.40;53.00;;;;;;4148512;28;20610;-43
2023/02/03 00:39:01;;;;;;;1.20;0.57;;;22.40;53.40;;;;;;4155205;28;20041;-44
2023/02/03 00:41:27;;;;;;;1.48;0.73;;;22.30;53.20;;;;;;4150226;28;20623;-40
2023/02/03 00:43:50;;;;;;;0.90;0.50;;;22.20;53.50;;;;;;4150325;28;20370;-40
2023/02/03 00:46:12;;;;;;;1.27;0.80;;;22.10;53.10;;;;;;4155954;28;20068;-42
2023/02/03 00:48:35;;;;;;;1.60;0.93;;;22.10;53.50;;;;;;4154310;28;20489;-40
2023/02/03 00:50:57;;;;;;;1.67;0.95;;;22.00;53.50;;;;;;4152472;28;20046;-50
2023/02/03 00:53:20;;;;;;;1.70;0.70;;;22.00;53.70;;;;;;4155155;28;20087;-40
2023/02/03 00:55:45;;;;;;;2.15;0.95;;;21.90;53.90;;;;;;4151674;28;20052;-42
2023/02/03 00:58:07;;;;;;;1.80;0.60;;;21.90;53.60;;;;;;4150878;28;20080;-43
2023/02/03 01:00:30;;;;;;;1.10;0.70;;;21.90;53.70;;;;;;4154609;28;20029;-41
2023/02/03 01:02:52;;;;;;;2.90;0.98;;;21.80;53.90;;;;;;4153187;28;20041;-39
2023/02/03 01:05:14;;;;;;;2.03;1.10;;;21.70;54.20;;;;;;4152167;28;20037;-42
2023/02/03 01:07:37;;;;;;;2.40;1.15;;;21.70;54.00;;;;;;4152792;28;20076;-41
2023/02/03 01:10:00;;;;;;;2.78;1.00;;;21.60;54.20;;;;;;4152371;28;20033;-44
2023/02/03 01:12:22;;;;;;;2.78;1.10;;;21.60;54.10;;;;;;4151815;28;20068;-42
2023/02/03 01:14:45;;;;;;;2.42;1.08;;;21.50;54.40;;;;;;4151659;28;20496;-42
2023/02/03 01:17:08;;;;;;;1.48;0.88;;;21.50;54.30;;;;;;4155870;28;20041;-41
2023/02/03 01:19:30;;;;;;;1.90;0.93;;;21.50;54.40;;;;;;4152049;28;20386;-42
2023/02/03 01:21:53;;;;;;;3.20;1.15;;;21.40;54.40;;;;;;4150173;28;20501;-41
2023/02/03 01:24:15;;;;;;;1.67;0.85;;;21.40;54.60;;;;;;4154660;28;20045;-40
2023/02/03 01:26:38;;;;;;;1.75;0.85;;;21.40;54.70;;;;;;4145673;28;20045;-42
2023/02/03 01:29:01;;;;;;;2.55;0.88;;;21.30;54.70;;;;;;4150502;28;20047;-43
2023/02/03 01:31:35;;;;;;;3.30;1.20;;;21.30;54.70;;;;;;4155155;28;20156;-40
2023/02/03 01:33:58;;;;;;;3.15;1.25;;;21.20;55.00;;;;;;4154900;28;20045;-40
2023/02/03 01:36:23;;;;;;;3.58;1.40;;;21.20;55.20;;;;;;4152322;28;20052;-43
2023/02/03 01:38:46;;;;;;;4.20;1.52;;;21.20;55.40;;;;;;4147291;28;20072;-47
2023/02/03 01:41:14;;;;;;;6.20;1.40;;;21.20;55.30;;;;;;4154872;28;20084;-40
2023/02/03 01:43:40;;;;;;;3.40;1.50;;;21.10;55.20;;;;;;4149574;28;20037;-44
2023/02/03 01:46:24;;;;;;;2.75;1.63;;;21.10;55.60;;;;;;4147657;28;20417;-44
2023/02/03 01:48:46;;;;;;;;;;;21.20;55.40;;;;;;4149784;28;20068;-42
2023/02/03 01:51:09;;;;;;;3.28;1.70;;;21.10;55.60;;;;;;4152153;28;19963;-44
2023/02/03 01:53:32;;;;;;;3.05;1.65;;;21.00;55.50;;;;;;4155475;28;20116;-42
2023/02/03 01:55:56;;;;;;;3.83;1.50;;;21.00;55.50;;;;;;4154262;28;20476;-44
2023/02/03 01:58:26;;;;;;;2.35;1.10;;;21.00;55.60;;;;;;4152300;28;20037;-46
2023/02/03 02:00:49;;;;;;;4.90;1.00;;;21.00;55.70;;;;;;4153538;28;20156;-42
2023/02/03 02:03:13;;;;;;;4.05;1.38;;;21.00;55.80;;;;;;4152779;28;20091;-41
2023/02/03 02:05:42;;;;;;;;;;;20.90;55.90;;;;;;4152440;28;20068;-41
2023/02/03 02:08:05;;;;;;;2.17;0.95;;;20.90;56.00;;;;;;4153117;28;19917;-40
2023/02/03 02:10:30;;;;;;;2.83;1.10;;;20.90;55.90;;;;;;4153331;28;20072;-41
2023/02/03 02:12:56;;;;;;;2.50;0.98;;;20.80;56.00;;;;;;4153533;28;20107;-40
2023/02/03 02:15:23;;;;;;;2.17;1.30;;;20.80;56.20;;;;;;4155733;28;20033;-40
2023/02/03 02:18:14;;;;;;;1.30;0.82;;;20.80;56.40;;;;;;4157414;28;20037;-42
2023/02/03 02:20:56;;;;;;;4.90;1.48;;;20.70;56.40;;;;;;4151508;28;20425;-40
2023/02/03 02:23:21;;;;;;;5.05;2.80;;;20.70;56.50;;;;;;4158084;28;20494;-40
2023/02/03 02:25:58;;;;;;;3.78;2.63;;;20.70;56.50;;;;;;4158231;28;20645;-46
2023/02/03 02:28:57;;;;;;;4.75;3.40;;;20.70;56.60;;;;;;4141433;28;20037;-40
2023/02/03 02:31:29;;;;;;;6.28;4.32;;;20.70;56.60;;;;;;4152735;28;20038;-40
2023/02/03 02:34:22;;;;;;;6.88;5.20;;;20.70;56.30;;;;;;4153679;28;20097;-39
2023/02/03 02:37:14;;;;;;;6.78;5.20;;;20.60;56.30;;;;;;4155469;28;20045;-40
2023/02/03 02:40:15;;;;;;;6.93;5.63;;;20.60;56.40;;;;;;4146842;28;20050;-43
2023/02/03 02:42:53;;;;;;;9.48;6.43;;;20.60;56.60;;;;;;4152058;28;20340;-39
2023/02/03 02:45:26;;;;;;;8.27;6.82;;;20.60;56.50;;;;;;4153355;28;20287;-39
2023/02/03 02:47:53;;;;;;;8.47;7.07;;;20.60;56.50;;;;;;4153788;28;20041;-40
2023/02/03 02:50:25;;;;;;;8.55;6.75;;;20.60;56.50;;;;;;4150285;28;20120;-39
2023/02/03 02:52:49;;;;;;;9.57;7.85;;;20.50;56.50;;;;;;4153580;28;20051;-40
2023/02/03 02:55:23;;;;;;;11.38;8.20;;;20.50;56.60;;;;;;4153554;28;20539;-40
2023/02/03 02:57:48;;;;;;;10.10;7.80;;;20.50;56.60;;;;;;4150383;28;20162;-38
2023/02/03 03:00:12;;;;;;;11.20;8.45;;;20.50;56.60;;;;;;4151246;28;20037;-41
2023/02/03 03:02:36;;;;;;;11.32;8.77;;;20.40;56.60;;;;;;4149980;28;20044;-40
2023/02/03 03:04:58;;;;;;;10.32;8.52;;;20.50;56.80;;;;;;4148284;28;20045;-38
2023/02/03 03:07:27;;;;;;;11.43;9.52;;;20.40;56.80;;;;;;4156288;28;20053;-39
2023/02/03 03:09:57;;;;;;;11.27;9.48;;;20.40;56.80;;;;;;4155387;28;20123;-39
2023/02/03 03:12:35;;;;;;;12.80;10.15;;;20.40;56.70;;;;;;4157234;28;20502;-40
2023/02/03 03:15:08;;;;;;;11.98;10.05;;;20.40;56.30;;;;;;4156135;28;20465;-42
2023/02/03 03:17:37;;;;;;;14.40;10.13;;;20.40;56.50;;;;;;4155760;28;20377;-40
2023/02/03 03:20:04;;;;;;;10.60;8.90;;;20.40;56.70;;;;;;4155973;28;20520;-39
2023/02/03 03:22:34;;;;;;;11.07;9.90;;;20.40;56.80;;;;;;4157331;28;20057;-41
2023/02/03 03:25:10;;;;;;;13.38;10.38;;;20.40;56.90;;;;;;4153646;28;20490;-40
2023/02/03 03:27:40;;;;;;;11.98;9.68;;;20.30;56.80;;;;;;4156314;28;20057;-43
2023/02/03 03:30:16;;;;;;;12.45;9.70;;;20.40;56.80;;;;;;4154166;28;20153;-38
2023/02/03 03:32:39;;;;;;;14.35;10.48;;;20.40;56.80;;;;;;4153311;28;20037;-39
2023/02/03 03:35:03;;;;;;;12.50;10.15;;;20.30;56.80;;;;;;4157420;28;20033;-43
2023/02/03 03:37:45;;;;;;;12.38;9.82;;;20.30;56.70;;;;;;4155053;28;20049;-41
2023/02/03 03:40:30;;;;;;;11.95;9.85;;;20.30;56.80;;;;;;4150920;28;20038;-40
2023/02/03 03:42:58;;;;;;;11.43;9.77;;;20.30;57.00;;;;;;4156110;28;20058;-41
2023/02/03 03:45:23;;;;;;;12.60;10.05;;;20.30;57.20;;;;;;4155238;28;20043;-38
2023/02/03 03:47:51;;;;;;;15.48;11.48;;;20.30;57.40;;;;;;4149648;28;20045;-40
2023/02/03 03:50:24;;;;;;;14.10;11.15;;;20.30;58.00;;;;;;4155123;28;20045;-42
2023/02/03 03:52:49;;;;;;;12.70;10.77;;;20.30;57.70;;;;;;4149562;28;20076;-41
2023/02/03 03:55:13;;;;;;;14.68;10.85;;;20.30;57.70;;;;;;4152008;28;20042;-40
2023/02/03 03:58:08;;;;;;;14.05;9.77;;;20.30;57.60;;;;;;4151994;28;20044;-45
2023/02/03 04:00:34;;;;;;;12.15;9.20;;;20.30;57.60;;;;;;4151140;28;20030;-42
2023/02/03 04:02:59;;;;;;;13.00;8.07;;;20.40;58.40;;;;;;4148729;28;20073;-41
2023/02/03 04:05:23;;;;;;;11.65;7.93;;;20.60;58.60;;;;;;4151992;28;20099;-40
2023/02/03 04:07:47;;;;;;;8.60;6.90;;;20.90;58.60;;;;;;4150118;28;20076;-42
2023/02/03 04:10:16;;;;;;;11.70;6.90;;;21.20;58.20;;;;;;4151582;28;20124;-43
2023/02/03 04:12:38;;;;;;;8.68;6.88;;;21.40;57.70;;;;;;4148219;28;20651;-41
2023/02/03 04:15:01;;;;;;;10.02;5.95;;;21.60;57.50;;;;;;4151627;28;20037;-42
2023/02/03 04:17:23;;;;;;;8.60;5.43;;;21.90;57.10;;;;;;4148616;28;20037;-43
2023/02/03 04:19:47;;;;;;;6.78;5.30;;;22.10;56.90;;;;;;4144214;28;20034;-38
2023/02/03 04:22:09;;;;;;;7.22;4.93;;;22.30;56.60;;;;;;4148300;28;20546;-42
2023/02/03 04:24:31;;;;;;;9.48;5.03;;;22.50;56.50;;;;;;4147300;28;20041;-39
2023/02/03 04:26:54;;;;;;;8.95;5.03;;;22.70;56.40;;;;;;4149484;28;20053;-41
2023/02/03 04:29:17;;;;;;;9.00;5.22;;;22.90;56.20;;;;;;4154821;28;20045;-46
2023/02/03 04:31:39;;;;;;;11.27;7.00;;;23.00;56.20;;;;;;4152299;28;20519;-47
2023/02/03 04:34:02;;;;;;;11.02;8.63;;;23.10;55.90;;;;;;4152086;28;20503;-41
2023/02/03 04:36:24;;;;;;;12.32;9.32;;;23.30;55.50;;;;;;4156126;28;20644;-48
2023/02/03 04:38:49;;;;;;;18.63;11.98;;;23.40;55.30;;;;;;4145737;28;20041;-42
2023/02/03 04:41:11;;;;;;;16.58;13.15;;;23.50;55.10;;;;;;4155814;28;20497;-43
2023/02/03 04:43:33;;;;;;;14.95;12.60;;;23.70;55.10;;;;;;4155932;28;20044;-48
2023/02/03 04:45:58;;;;;;;17.88;13.85;;;23.80;55.00;;;;;;4155569;28;20454;-43
2023/02/03 04:48:20;;;;;;;16.23;13.68;;;23.90;55.00;;;;;;4155321;28;20496;-45
2023/02/03 04:50:43;;;;;;;15.20;13.25;;;24.00;54.90;;;;;;4151789;28;20100;-42
2023/02/03 04:53:05;;;;;;;15.27;13.68;;;24.10;54.80;;;;;;4147867;28;20140;-43
2023/02/03 04:55:28;;;;;;;16.00;11.95;;;24.20;54.60;;;;;;4146293;28;20053;-45
2023/02/03 04:57:58;;;;;;;13.35;11.35;;;24.30;54.40;;;;;;4145915;28;20038;-44
2023/02/03 05:00:21;;;;;;;14.63;11.15;;;24.40;54.20;;;;;;4141231;28;20030;-42
2023/02/03 05:02:43;;;;;;;14.82;11.82;;;24.60;54.10;;;;;;4147042;28;20038;-40
2023/02/03 05:05:06;;;;;;;19.58;11.02;;;24.60;53.90;;;;;;4148664;28;20034;-39
2023/02/03 05:07:28;;;;;;;15.38;12.23;;;24.80;54.50;;;;;;4148946;28;20048;-39
2023/02/03 05:09:51;;;;;;;15.10;13.48;;;24.70;53.00;;;;;;4148750;28;20056;-39
2023/02/03 05:12:13;;;;;;;15.27;12.52;;;24.40;51.80;;;;;;4148000;28;20402;-38
2023/02/03 05:14:36;;;;;;;14.98;13.00;;;24.10;51.60;;;;;;4150596;28;20069;-37
2023/02/03 05:16:58;;;;;;;15.98;12.45;;;23.80;51.70;;;;;;4148592;28;20037;-42
2023/02/03 05:19:20;;;;;;;13.45;10.27;;;23.60;51.70;;;;;;4148578;28;20324;-40
2023/02/03 05:21:43;;;;;;;9.85;8.75;;;23.40;51.80;;;;;;4148644;28;20033;-37
2023/02/03 05:24:06;;;;;;;10.13;8.18;;;23.30;51.80;;;;;;4144594;28;20127;-38
2023/02/03 05:26:29;;;;;;;10.43;7.68;;;23.10;51.90;;;;;;4146934;28;20164;-39
2023/02/03 05:28:52;;;;;;;10.63;8.13;;;23.00;52.00;;;;;;4149696;28;20392;-40
2023/02/03 05:31:14;;;;;;;9.43;7.47;;;22.90;52.10;;;;;;4147925;28;20056;-41
2023/02/03 05:33:36;;;;;;;9.65;7.85;;;22.90;52.40;;;;;;4149125;28;20144;-42
2023/02/03 05:35:59;;;;;;;10.43;7.63;;;22.80;52.30;;;;;;4150336;28;20108;-47
2023/02/03 05:38:21;;;;;;;11.45;8.20;;;22.80;52.50;;;;;;4150790;28;20041;-40
2023/02/03 05:43:28;;;;;;;11.32;8.05;;;22.60;52.70;;;;;;4151297;28;20115;-44
2023/02/03 05:45:50;;;;;;;10.75;9.13;;;22.60;52.90;;;;;;4150203;28;20042;-40
2023/02/03 05:48:13;;;;;;;11.82;9.45;;;22.50;52.70;;;;;;4152590;28;20347;-42
2023/02/03 05:50:36;;;;;;;11.77;9.50;;;22.40;52.80;;;;;;4144808;28;20041;-44
2023/02/03 05:53:00;;;;;;;10.30;9.20;;;22.40;53.10;;;;;;4153649;28;20474;-39
2023/02/03 05:55:22;;;;;;;11.85;9.85;;;22.20;53.10;;;;;;4153577;28;20033;-40
2023/02/03 05:57:44;;;;;;;10.35;8.20;;;22.20;53.20;;;;;;4153071;28;20100;-40
2023/02/03 06:00:07;;;;;;;9.25;8.13;;;22.20;53.20;;;;;;4152633;28;20040;-42
2023/02/03 06:02:30;;;;;;;9.93;8.85;;;22.20;53.20;;;;;;4152843;28;20172;-43
2023/02/03 06:04:52;;;;;;;10.13;8.18;;;22.10;53.30;;;;;;4152894;28;20038;-41
2023/02/03 06:07:15;;;;;;;11.43;8.85;;;22.00;53.40;;;;;;4153590;28;20049;-40
2023/02/03 06:09:37;;;;;;;10.55;8.57;;;22.00;53.50;;;;;;4151937;28;20119;-42
2023/02/03 06:11:59;;;;;;;11.10;9.05;;;22.00;53.80;;;;;;4152643;28;20033;-40
2023/02/03 06:14:22;;;;;;;11.38;9.25;;;21.90;53.60;;;;;;4153430;28;20120;-40
2023/02/03 06:16:44;;;;;;;10.98;9.30;;;21.80;53.60;;;;;;4157064;28;20041;-41
2023/02/03 06:19:07;;;;;;;11.43;9.10;;;21.80;53.60;;;;;;4151336;28;20084;-40
2023/02/03 06:21:29;;;;;;;11.90;9.63;;;21.80;53.70;;;;;;4153168;28;20505;-41
2023/02/03 06:23:51;;;;;;;13.25;9.90;;;21.70;53.80;;;;;;4155624;28;20030;-44
2023/02/03 06:26:14;;;;;;;11.68;9.98;;;21.70;53.70;;;;;;4153176;28;20132;-47
2023/02/03 06:28:37;;;;;;;11.70;9.95;;;21.60;53.80;;;;;;4153445;28;20049;-41
2023/02/03 06:31:00;;;;;;;12.90;11.45;;;21.60;53.90;;;;;;4152963;28;20038;-46
2023/02/03 06:33:22;;;;;;;15.93;11.25;;;21.60;54.00;;;;;;4150503;28;20042;-39
2023/02/03 06:35:44;;;;;;;12.75;11.07;;;21.50;53.90;;;;;;4152561;28;20135;-42
2023/02/03 06:38:07;;;;;;;13.48;11.25;;;21.50;54.00;;;;;;4153680;28;20092;-41
2023/02/03 06:40:29;;;;;;;13.40;11.32;;;21.50;53.80;;;;;;4153523;28;20115;-41
2023/02/03 06:42:52;;;;;;;14.55;11.90;;;21.50;53.90;;;;;;4153098;28;20048;-44
2023/02/03 06:45:14;;;;;;;13.73;12.27;;;21.40;53.90;;;;;;4152100;28;20572;-42
2023/02/03 06:47:43;;;;;;;13.38;11.60;;;21.40;54.10;;;;;;4152947;28;20125;-44
2023/02/03 06:50:06;;;;;;;14.60;11.95;;;21.30;53.90;;;;;;4149873;28;20103;-48
2023/02/03 06:52:28;;;;;;;14.00;11.55;;;21.30;54.20;;;;;;4148201;28;20496;-45
2023/02/03 06:54:51;;;;;;;13.48;11.55;;;21.20;54.00;;;;;;4148952;28;20111;-41
2023/02/03 06:57:13;;;;;;;12.75;11.00;;;21.10;54.00;;;;;;4150093;28;20037;-41
2023/02/03 06:59:35;;;;;;;13.15;10.52;;;21.10;54.10;;;;;;4149970;28;20401;-39
2023/02/03 07:01:58;;;;;;;12.38;10.57;;;21.10;54.10;;;;;;4151619;28;20052;-39
2023/02/03 07:04:20;;;;;;;11.35;9.95;;;21.10;54.30;;;;;;4152385;28;20194;-38
2023/02/03 07:06:43;;;;;;;11.95;10.07;;;21.00;54.40;;;;;;4152381;28;20045;-39
2023/02/03 07:09:06;;;;;;;11.73;10.38;;;21.00;54.20;;;;;;4153935;28;20033;-42
2023/02/03 07:11:29;;;;;;;10.95;9.85;;;20.90;54.30;;;;;;4152558;28;20124;-43
2023/02/03 07:13:52;;;;;;;12.43;10.93;;;20.80;55.00;;;;;;4151255;28;20203;-39
2023/02/03 07:16:15;;;;;;;12.20;10.90;;;20.80;54.50;;;;;;4151864;28;20053;-41
2023/02/03 07:18:37;;;;;;;12.77;11.35;;;20.80;54.50;;;;;;4154178;28;20042;-41
2023/02/03 07:20:59;;;;;;;13.85;10.77;;;20.80;54.60;;;;;;4153380;28;20037;-38
2023/02/03 07:23:22;;;;;;;11.27;8.85;;;20.70;54.80;;;;;;4152473;28;20041;-40
2023/02/03 07:25:45;;;;;;;9.80;7.60;;;20.80;55.20;;;;;;4151977;28;20142;-38
2023/02/03 07:28:07;;;;;;;11.65;7.82;;;21.10;55.40;;;;;;4151560;28;20041;-41
2023/02/03 07:30:30;;;;;;;11.30;7.88;;;21.30;55.40;;;;;;4150958;28;20033;-43
2023/02/03 07:32:53;;;;;;;11.80;8.02;;;21.60;55.40;;;;;;4154611;28;20122;-42
2023/02/03 07:35:16;;;;;;;14.20;7.15;;;21.80;55.20;;;;;;4156400;28;20124;-38
2023/02/03 07:37:38;;;;;;;9.95;7.38;;;22.10;55.30;;;;;;4153209;28;20045;-39
2023/02/03 07:40:00;;;;;;;9.40;6.88;;;22.20;55.30;;;;;;4153375;28;20053;-38
2023/02/03 07:42:23;;;;;;;11.35;6.70;;;22.40;55.20;;;;;;4154001;28;20464;-39
2023/02/03 07:44:45;;;;;;;11.55;6.65;;;22.50;55.10;;;;;;4145047;28;20671;-42
2023/02/03 07:47:08;;;;;;;13.48;6.63;;;22.60;55.20;;;;;;4151316;28;20452;-43
2023/02/03 07:49:30;;;;;;;10.07;6.13;;;22.70;55.00;;;;;;4150114;28;20081;-38
2023/02/03 07:51:52;;;;;;;8.40;5.72;;;22.80;55.10;;;;;;4144595;28;20064;-41
2023/02/03 07:54:16;;;;;;;10.07;5.60;;;22.90;55.30;;;;;;4147385;28;20048;-38
2023/02/03 07:56:38;;;;;;;9.73;4.90;;;23.00;55.20;;;;;;4148640;28;20064;-39
2023/02/03 07:59:01;;;;;;;8.23;4.72;;;23.00;55.10;;;;;;4149566;28;20041;-38
2023/02/03 08:01:23;;;;;;;6.03;4.32;;;23.10;55.20;;;;;;4147980;28;20044;-40
2023/02/03 08:03:46;;;;;;;7.13;4.15;;;23.20;55.10;;;;;;4151507;28;20127;-38
2023/02/03 08:06:08;;;;;;;6.32;4.00;;;23.30;55.00;;;;;;4147677;28;20057;-38
2023/02/03 08:08:31;;;;;;;4.80;3.80;;;23.30;55.60;;;;;;4150136;28;20048;-43
2023/02/03 08:10:55;;;;;;;8.05;4.22;;;23.40;55.10;;;;;;4149696;28;20103;-44
2023/02/03 08:13:17;;;;;;;;;;;23.50;55.20;;;;;;4150557;28;20033;-40
2023/02/03 08:15:40;;;;;;;8.68;3.53;;;23.60;54.90;;;;;;4148909;28;20010;-39
2023/02/03 08:18:02;;;;;;;7.55;4.10;;;23.70;54.50;;;;;;4149071;28;20148;-39
2023/02/03 08:20:24;;;;;;;6.03;3.33;;;23.80;54.30;;;;;;4150784;28;20059;-42
2023/02/03 08:22:47;;;;;;;4.65;3.08;;;23.80;54.20;;;;;;4148772;28;20105;-39
2023/02/03 08:25:10;;;;;;;5.25;2.95;;;23.90;54.00;;;;;;4146917;28;20142;-42
2023/02/03 08:27:33;;;;;;;5.72;2.70;;;24.00;54.00;;;;;;4147477;28;20114;-42
2023/02/03 08:29:55;;;;;;;6.72;2.90;;;24.00;53.90;;;;;;4148278;28;20072;-40
2023/02/03 08:32:20;;;;;;;5.50;2.90;;;24.10;53.80;;;;;;4149387;28;20670;-44
2023/02/03 08:34:43;;;;;;;5.45;2.80;;;24.10;53.80;;;;;;4148519;28;20033;-40
2023/02/03 08:37:06;;;;;;;6.27;3.40;;;24.20;53.70;;;;;;4150637;28;20577;-40
2023/02/03 08:39:29;;;;;;;5.43;2.90;;;24.20;53.70;;;;;;4146590;28;20306;-42
2023/02/03 08:41:51;;;;;;;3.92;2.58;;;24.20;53.50;;;;;;4148396;28;20044;-42
2023/02/03 08:44:14;;;;;;;4.38;2.35;;;24.30;54.20;;;;;;4146576;28;20033;-40
2023/02/03 08:46:42;;;;;;;4.00;2.13;;;24.30;53.40;;;;;;4149508;28;20045;-40
2023/02/03 08:49:05;;;;;;;4.90;2.28;;;24.40;53.40;;;;;;4149734;28;20564;-39
2023/02/03 08:51:27;;;;;;;4.30;2.38;;;24.40;53.30;;;;;;4147464;28;20042;-42
2023/02/03 08:53:50;;;;;;;3.50;2.10;;;24.40;53.20;;;;;;4150763;28;20095;-40
2023/02/03 08:56:12;;;;;;;3.95;2.20;;;24.40;53.10;;;;;;4147661;28;20125;-40
2023/02/03 08:58:36;;;;;;;4.85;1.88;;;24.50;53.20;;;;;;4150155;28;20103;-42
2023/02/03 09:01:07;;;;;;;4.18;2.00;;;24.50;52.50;;;;;;4150905;28;20045;-49
2023/02/03 09:03:29;;;;;;;3.75;2.28;;;24.60;53.00;;;;;;4148500;28;20095;-41
2023/02/03 09:05:52;;;;;;;3.65;1.90;;;24.60;53.00;;;;;;4150150;28;20076;-42
2023/02/03 09:08:14;;;;;;;2.30;1.73;;;24.60;52.90;;;;;;4152678;28;20049;-40
2023/02/03 09:10:37;;;;;;;3.97;2.03;;;24.60;52.90;;;;;;4150196;28;20065;-40
2023/02/03 09:12:59;;;;;;;3.80;2.00;;;24.60;52.90;;;;;;4144471;28;20064;-39
2023/02/03 09:15:21;;;;;;;3.72;1.92;;;24.70;52.80;;;;;;4151126;28;20441;-41
2023/02/03 09:17:44;;;;;;;4.03;1.73;;;24.70;52.70;;;;;;4145197;28;20129;-41
2023/02/03 09:20:07;;;;;;;4.20;1.60;;;24.70;52.50;;;;;;4151388;28;20128;-40
2023/02/03 09:22:30;;;;;;;4.18;1.70;;;24.70;52.50;;;;;;4139536;28;20104;-40
2023/02/03 09:24:55;;;;;;;4.70;1.60;;;24.80;52.50;;;;;;4152120;28;20030;-40
2023/02/03 09:27:17;;;;;;;3.15;1.67;;;24.80;52.50;;;;;;4152708;28;20042;-38
2023/02/03 09:29:40;;;;;;;2.72;1.50;;;24.70;52.40;;;;;;4153444;28;20033;-40
2023/02/03 09:32:06;;;;;;;2.97;1.42;;;24.80;52.50;;;;;;4147069;28;20041;-43
2023/02/03 09:34:28;;;;;;;3.65;1.85;;;24.80;52.50;;;;;;4152169;28;20039;-40
2023/02/03 09:36:51;;;;;;;2.78;1.48;;;24.80;52.40;;;;;;4143079;28;20064;-38
2023/02/03 09:39:14;;;;;;;3.05;1.52;;;24.80;52.50;;;;;;4143862;28;20118;-39
2023/02/03 09:42:13;;;;;;;1.95;1.35;;;24.90;52.50;;;;;;4147957;28;20470;-40
2023/02/03 09:44:47;;;;;;;2.80;1.42;;;24.90;52.40;;;;;;4144435;28;20481;-41
2023/02/03 09:47:16;;;;;;;3.25;1.42;;;24.90;52.40;;;;;;4147802;28;20057;-40
2023/02/03 09:49:49;;;;;;;2.97;1.40;;;24.90;52.30;;;;;;4143576;28;20489;-41
2023/02/03 09:52:15;;;;;;;3.42;1.25;;;25.00;52.30;;;;;;4142668;28;20048;-41
2023/02/03 09:54:57;;;;;;;3.88;1.40;;;25.00;52.30;;;;;;4141409;28;20338;-40
2023/02/03 09:57:25;;;;;;;2.65;1.23;;;25.00;52.30;;;;;;4146656;28;20041;-42
2023/02/03 09:59:49;;;;;;;4.00;1.38;;;25.00;52.30;;;;;;4145759;28;20041;-39
2023/02/03 10:02:53;;;;;;;2.30;1.10;;;25.10;52.30;;;;;;4143936;28;20078;-41
2023/02/03 10:05:34;;;;;;;3.85;1.10;;;25.10;52.30;;;;;;4142788;28;20133;-39
2023/02/03 10:08:00;;;;;;;2.58;1.02;;;25.10;52.20;;;;;;4147583;28;20053;-42
2023/02/03 10:10:49;;;;;;;3.20;1.10;;;25.10;52.10;;;;;;4143291;28;20091;-41
2023/02/03 10:13:14;;;;;;;2.13;1.00;;;25.10;52.20;;;;;;4143409;28;20119;-42
2023/02/03 10:15:42;;;;;;;2.63;1.40;;;25.10;52.20;;;;;;4148564;28;20045;-40
2023/02/03 10:18:19;;;;;;;2.15;1.20;;;25.10;52.20;;;;;;4145498;28;20037;-39
2023/02/03 10:20:49;;;;;;;3.20;1.17;;;25.10;52.10;;;;;;4143226;28;20037;-41
2023/02/03 10:23:29;;;;;;;1.95;0.88;;;25.10;52.20;;;;;;4143715;28;20041;-39
2023/02/03 10:25:57;;;;;;;1.70;0.88;;;25.10;52.50;;;;;;4142029;28;20029;-39
2023/02/03 10:28:27;;;;;;;1.75;0.77;;;25.20;52.10;;;;;;4147024;28;20057;-41
2023/02/03 10:30:56;;;;;;;1.88;0.90;;;25.10;52.00;;;;;;4144555;28;20061;-40
2023/02/03 10:33:20;;;;;;;2.38;1.13;;;25.20;52.20;;;;;;4143033;28;20055;-40
2023/02/03 10:35:52;;;;;;;2.17;0.82;;;25.20;52.20;;;;;;4141274;28;20069;-40
2023/02/03 10:38:32;;;;;;;11.38;1.52;;;25.20;52.30;;;;;;4145929;28;20095;-42
2023/02/03 10:40:54;;;;;;;3.28;1.60;;;25.20;52.70;;;;;;4150476;28;20029;-47
2023/02/03 10:45:58;;;;;;;7.35;1.83;;;25.20;53.20;;;;;;4145589;28;20129;-42
2023/02/03 10:48:22;;;;;;;5.35;1.73;;;25.30;53.40;;;;;;4149364;28;20073;-40
2023/02/03 10:50:49;;;;;;;2.95;1.15;;;25.30;53.50;;;;;;4145520;28;20039;-40
2023/02/03 10:53:31;;;;;;;8.32;1.60;;;25.30;53.60;;;;;;4146530;28;20072;-45
2023/02/03 10:56:12;;;;;;;5.00;1.17;;;25.40;53.80;;;;;;4147018;28;20477;-41
2023/02/03 10:58:37;;;;;;;4.95;1.25;;;25.40;54.60;;;;;;4148755;28;20048;-45
2023/02/03 11:01:11;;;;;;;5.43;1.73;;;25.40;53.90;;;;;;4149902;28;20033;-42
2023/02/03 11:03:34;;;;;;;3.53;1.00;;;25.50;53.90;;;;;;4151939;28;20056;-46
2023/02/03 11:06:16;;;;;;;6.18;1.02;;;25.50;53.90;;;;;;4149012;28;20054;-42
2023/02/03 11:08:44;;;;;;;2.95;0.82;;;25.50;53.90;;;;;;4148617;28;20042;-45
2023/02/03 11:11:30;;;;;;;2.92;0.70;;;25.60;53.90;;;;;;4146971;28;20048;-45
2023/02/03 11:13:54;;;;;;;2.67;0.88;;;25.60;53.90;;;;;;4147744;28;20142;-42
2023/02/03 11:16:23;;;;;;;3.70;1.02;;;25.60;54.00;;;;;;4148797;28;20049;-41
2023/02/03 11:19:06;;;;;;;3.15;1.08;;;25.60;54.10;;;;;;4145323;28;20486;-38
2023/02/03 11:21:37;;;;;;;3.28;0.90;;;25.60;54.10;;;;;;4148032;28;20436;-40
2023/02/03 11:24:23;;;;;;;4.15;0.70;;;25.70;54.30;;;;;;4145100;28;20037;-45
2023/02/03 11:26:57;;;;;;;4.10;1.15;;;25.70;53.90;;;;;;4150772;28;20079;-39
2023/02/03 11:29:33;;;;;;;3.40;0.95;;;25.80;53.70;;;;;;4150540;28;20053;-40
2023/02/03 11:31:57;;;;;;;17.58;1.63;;;25.80;53.40;;;;;;4152468;28;20449;-39
2023/02/03 11:34:28;;;;;;;3.20;0.85;;;25.80;53.70;;;;;;4153289;28;20043;-42
2023/02/03 11:36:51;;;;;;;3.53;1.13;;;25.80;53.80;;;;;;4149543;28;20057;-45
2023/02/03 11:39:18;;;;;;;3.30;0.90;;;25.80;53.90;;;;;;4152920;28;20107;-40
2023/02/03 11:41:41;;;;;;;5.07;1.33;;;25.80;53.80;;;;;;4154943;28;20044;-42
2023/02/03 11:44:18;;;;;;;4.38;1.02;;;25.80;53.90;;;;;;4149960;28;20044;-50
2023/02/03 11:46:41;;;;;;;2.78;0.93;;;25.80;53.90;;;;;;4152322;28;20115;-44
2023/02/03 11:49:20;;;;;;;4.03;1.50;;;25.90;54.00;;;;;;4154066;28;20063;-39
2023/02/03 11:52:03;;;;;;;2.53;0.90;;;25.90;54.10;;;;;;4153059;28;20300;-39
2023/02/03 11:55:11;;;;;;;0.63;0.60;;;25.90;54.00;;;;;;4152563;28;20041;-37
2023/02/03 11:57:34;;;;;;;2.28;1.08;;;26.00;53.90;;;;;;4154136;28;20427;-44
2023/02/03 12:00:30;;;;;;;1.23;0.57;;;26.00;53.80;;;;;;4154821;28;20537;-47
2023/02/03 12:03:13;;;;;;;1.52;0.93;;;26.10;53.90;;;;;;4154210;28;20378;-42
2023/02/03 12:05:57;;;;;;;4.55;1.48;;;26.10;54.40;;;;;;4155781;28;20045;-40
2023/02/03 12:08:42;;;;;;;3.15;1.10;;;26.10;53.30;;;;;;4144063;28;20056;-42
2023/02/03 12:11:35;;;;;;;5.55;1.30;;;26.10;53.40;;;;;;4153784;28;20041;-42
2023/02/03 12:14:24;;;;;;;15.88;2.67;;;26.10;53.60;;;;;;4151253;28;20120;-40
2023/02/03 12:17:06;;;;;;;11.75;1.40;;;26.10;53.80;;;;;;4155811;28;20551;-40
2023/02/03 12:19:32;;;;;;;14.07;1.98;;;26.10;53.90;;;;;;4156810;28;20042;-44
2023/02/03 12:22:10;;;;;;;12.85;1.80;;;26.10;54.00;;;;;;4154135;28;20034;-44
2023/02/03 12:24:52;;;;;;;13.30;1.30;;;26.00;54.20;;;;;;4157315;28;20037;-40
2023/02/03 12:27:25;;;;;;;7.15;1.45;;;26.00;54.50;;;;;;4150208;28;20051;-43
2023/02/03 12:29:57;;;;;;;8.68;1.23;;;25.90;54.70;;;;;;4156774;28;20045;-42
2023/02/03 12:32:58;;;;;;;11.68;1.40;;;25.90;54.80;;;;;;4154229;28;20096;-44
2023/02/03 12:35:39;;;;;;;4.50;1.08;;;25.90;54.90;;;;;;4123792;28;20881;-41
2023/02/03 12:38:09;;;;;;;4.03;0.82;;;25.90;55.00;;;;;;4155132;28;20068;-45
2023/02/03 12:40:52;;;;;;;3.15;0.90;;;25.80;55.00;;;;;;4154818;28;20038;-46
2023/02/03 12:43:38;;;;;;;3.03;1.17;;;25.90;55.10;;;;;;4152985;28;20037;-40
2023/02/03 12:46:36;;;;;;;1.90;0.70;;;25.90;55.20;;;;;;4156138;28;20041;-43
2023/02/03 12:49:10;;;;;;;3.25;0.95;;;25.90;55.20;;;;;;4153942;28;20037;-42